sensor_id;sensor_type;location;lat;lon;timestamp;temperature;humidity
51011;DHT22;37038;50.182;8.624;2024-01-30T00:02:17;3.20;99.90
51011;DHT22;37038;50.182;8.624;2024-01-30T00:05:05;3.10;99.90
51011;DHT22;37038;50.182;8.624;2024-01-30T00:07:52;3.20;99.90
51011;DHT22;37038;50.182;8.624;2024-01-30T00:10:41;3.30;99.90
51011;DHT22;37038;50.182;8.624;2024-01-30T00:13:28;3.30;99.90
51011;DHT22;37038;50.182;8.624;2024-01-30T00:16:23;3.50;99.90
51011;DHT22;37038;50.182;8.624;2024-01-30T00:19:14;3.30;99.90
51011;DHT22;37038;50.182;8.624;2024-01-30T00:22:02;3.20;99.90
51011;DHT22;37038;50.182;8.624;2024-01-30T00:24:50;3.30;99.90
51011;DHT22;37038;50.182;8.624;2024-01-30T00:27:38;3.20;99.90
51011;DHT22;37038;50.182;8.624;2024-01-30T00:30:25;3.20;99.90
51011;DHT22;37038;50.182;8.624;2024-01-30T00:33:13;3.40;99.90
51011;DHT22;37038;50.182;8.624;2024-01-30T00:36:01;3.20;99.90
51011;DHT22;37038;50.182;8.624;2024-01-30T00:38:49;3.30;70.20
51011;DHT22;37038;50.182;8.624;2024-01-30T00:41:36;3.40;92.90
51011;DHT22;37038;50.182;8.624;2024-01-30T00:44:24;3.30;1.00
51011;DHT22;37038;50.182;8.624;2024-01-30T00:47:12;3.20;1.00
51011;DHT22;37038;50.182;8.624;2024-01-30T00:49:59;3.40;34.40
51011;DHT22;37038;50.182;8.624;2024-01-30T00:52:47;3.50;1.00
51011;DHT22;37038;50.182;8.624;2024-01-30T00:55:35;3.40;1.00
51011;DHT22;37038;50.182;8.624;2024-01-30T00:58:23;3.30;1.00
51011;DHT22;37038;50.182;8.624;2024-01-30T01:01:11;3.20;1.00
51011;DHT22;37038;50.182;8.624;2024-01-30T01:03:59;2.80;1.00
51011;DHT22;37038;50.182;8.624;2024-01-30T01:06:47;2.50;99.90
51011;DHT22;37038;50.182;8.624;2024-01-30T01:09:35;2.40;99.90
51011;DHT22;37038;50.182;8.624;2024-01-30T01:12:22;2.40;99.90
51011;DHT22;37038;50.182;8.624;2024-01-30T01:15:11;2.40;99.90
51011;DHT22;37038;50.182;8.624;2024-01-30T01:17:58;2.70;99.90
51011;DHT22;37038;50.182;8.624;2024-01-30T01:20:47;2.60;99.90
51011;DHT22;37038;50.182;8.624;2024-01-30T01:23:34;2.80;99.90
51011;DHT22;37038;50.182;8.624;2024-01-30T01:26:22;2.90;99.90
51011;DHT22;37038;50.182;8.624;2024-01-30T01:29:10;2.70;99.90
51011;DHT22;37038;50.182;8.624;2024-01-30T01:31:59;2.40;99.90
51011;DHT22;37038;50.182;8.624;2024-01-30T01:34:47;2.30;99.90
51011;DHT22;37038;50.182;8.624;2024-01-30T01:37:35;2.20;99.90
51011;DHT22;37038;50.182;8.624;2024-01-30T01:40:24;2.20;99.90
51011;DHT22;37038;50.182;8.624;2024-01-30T01:43:12;2.20;99.90
51011;DHT22;37038;50.182;8.624;2024-01-30T01:46:00;2.40;99.90
51011;DHT22;37038;50.182;8.624;2024-01-30T01:48:49;2.30;99.90
51011;DHT22;37038;50.182;8.624;2024-01-30T01:51:38;2.30;99.90
51011;DHT22;37038;50.182;8.624;2024-01-30T01:54:28;2.20;99.90
51011;DHT22;37038;50.182;8.624;2024-01-30T01:57:16;2.10;99.90
51011;DHT22;37038;50.182;8.624;2024-01-30T02:00:04;2.30;99.90
51011;DHT22;37038;50.182;8.624;2024-01-30T02:02:53;2.50;99.90
51011;DHT22;37038;50.182;8.624;2024-01-30T02:05:41;2.20;99.90
51011;DHT22;37038;50.182;8.624;2024-01-30T02:08:30;1.90;99.90
51011;DHT22;37038;50.182;8.624;2024-01-30T02:11:19;1.80;99.90
51011;DHT22;37038;50.182;8.624;2024-01-30T02:14:07;1.70;99.90
51011;DHT22;37038;50.182;8.624;2024-01-30T02:16:55;1.70;99.90
51011;DHT22;37038;50.182;8.624;2024-01-30T02:19:42;1.60;99.90
51011;DHT22;37038;50.182;8.624;2024-01-30T02:22:32;1.60;99.90
51011;DHT22;37038;50.182;8.624;2024-01-30T02:25:30;1.70;99.90
51011;DHT22;37038;50.182;8.624;2024-01-30T02:28:19;1.80;99.90
51011;DHT22;37038;50.182;8.624;2024-01-30T02:31:07;1.70;99.90
51011;DHT22;37038;50.182;8.624;2024-01-30T02:33:55;1.70;99.90
51011;DHT22;37038;50.182;8.624;2024-01-30T02:36:43;1.80;99.90
51011;DHT22;37038;50.182;8.624;2024-01-30T02:39:31;1.70;99.90
51011;DHT22;37038;50.182;8.624;2024-01-30T02:42:18;1.60;99.90
51011;DHT22;37038;50.182;8.624;2024-01-30T02:45:07;1.50;99.90
51011;DHT22;37038;50.182;8.624;2024-01-30T02:47:55;1.60;99.90
51011;DHT22;37038;50.182;8.624;2024-01-30T02:50:42;1.60;99.90
51011;DHT22;37038;50.182;8.624;2024-01-30T02:53:30;1.60;99.90
51011;DHT22;37038;50.182;8.624;2024-01-30T02:56:18;1.80;99.90
51011;DHT22;37038;50.182;8.624;2024-01-30T02:59:06;1.70;99.90
51011;DHT22;37038;50.182;8.624;2024-01-30T03:01:53;1.50;99.90
51011;DHT22;37038;50.182;8.624;2024-01-30T03:04:42;1.50;99.90
51011;DHT22;37038;50.182;8.624;2024-01-30T03:07:30;1.60;99.90
51011;DHT22;37038;50.182;8.624;2024-01-30T03:10:17;1.90;99.90
51011;DHT22;37038;50.182;8.624;2024-01-30T03:13:05;2.10;99.90
51011;DHT22;37038;50.182;8.624;2024-01-30T03:15:53;2.30;99.90
51011;DHT22;37038;50.182;8.624;2024-01-30T03:18:41;2.40;99.90
51011;DHT22;37038;50.182;8.624;2024-01-30T03:21:29;2.20;99.90
51011;DHT22;37038;50.182;8.624;2024-01-30T03:24:17;2.20;99.90
51011;DHT22;37038;50.182;8.624;2024-01-30T03:27:04;2.40;99.90
51011;DHT22;37038;50.182;8.624;2024-01-30T03:29:52;2.50;99.90
51011;DHT22;37038;50.182;8.624;2024-01-30T03:32:40;2.80;99.90
51011;DHT22;37038;50.182;8.624;2024-01-30T03:35:27;2.80;99.90
51011;DHT22;37038;50.182;8.624;2024-01-30T03:38:15;2.30;99.90
51011;DHT22;37038;50.182;8.624;2024-01-30T03:41:03;1.90;99.90
51011;DHT22;37038;50.182;8.624;2024-01-30T03:43:51;1.60;99.90
51011;DHT22;37038;50.182;8.624;2024-01-30T03:46:38;1.90;99.90
51011;DHT22;37038;50.182;8.624;2024-01-30T03:49:26;1.90;99.90
51011;DHT22;37038;50.182;8.624;2024-01-30T03:52:14;1.90;99.90
51011;DHT22;37038;50.182;8.624;2024-01-30T03:55:02;1.90;99.90
51011;DHT22;37038;50.182;8.624;2024-01-30T03:57:50;1.90;99.90
51011;DHT22;37038;50.182;8.624;2024-01-30T04:00:38;1.90;99.90
51011;DHT22;37038;50.182;8.624;2024-01-30T04:03:26;1.90;99.90
51011;DHT22;37038;50.182;8.624;2024-01-30T04:06:13;2.00;99.90
51011;DHT22;37038;50.182;8.624;2024-01-30T04:09:01;2.10;99.90
51011;DHT22;37038;50.182;8.624;2024-01-30T04:11:51;2.20;99.90
51011;DHT22;37038;50.182;8.624;2024-01-30T04:14:39;2.10;99.90
51011;DHT22;37038;50.182;8.624;2024-01-30T04:17:30;1.90;99.90
51011;DHT22;37038;50.182;8.624;2024-01-30T04:20:18;1.80;99.90
51011;DHT22;37038;50.182;8.624;2024-01-30T04:23:06;1.90;99.90
51011;DHT22;37038;50.182;8.624;2024-01-30T04:25:54;1.90;99.90
51011;DHT22;37038;50.182;8.624;2024-01-30T04:28:43;1.90;99.90
51011;DHT22;37038;50.182;8.624;2024-01-30T04:31:36;1.90;99.90
51011;DHT22;37038;50.182;8.624;2024-01-30T04:34:24;2.00;99.90
51011;DHT22;37038;50.182;8.624;2024-01-30T04:37:12;2.00;99.90
51011;DHT22;37038;50.182;8.624;2024-01-30T04:39:59;1.80;99.90
51011;DHT22;37038;50.182;8.624;2024-01-30T04:42:47;1.80;99.90
51011;DHT22;37038;50.182;8.624;2024-01-30T04:45:35;1.90;99.90
51011;DHT22;37038;50.182;8.624;2024-01-30T04:48:23;2.30;99.90
51011;DHT22;37038;50.182;8.624;2024-01-30T04:51:11;2.40;99.90
51011;DHT22;37038;50.182;8.624;2024-01-30T04:53:59;2.30;99.90
51011;DHT22;37038;50.182;8.624;2024-01-30T04:56:47;2.40;99.90
51011;DHT22;37038;50.182;8.624;2024-01-30T04:59:35;2.30;99.90
51011;DHT22;37038;50.182;8.624;2024-01-30T05:02:23;2.20;99.90
51011;DHT22;37038;50.182;8.624;2024-01-30T05:05:11;2.20;99.90
51011;DHT22;37038;50.182;8.624;2024-01-30T05:07:59;2.30;99.90
51011;DHT22;37038;50.182;8.624;2024-01-30T05:10:47;2.00;99.90
51011;DHT22;37038;50.182;8.624;2024-01-30T05:13:35;1.90;99.90
51011;DHT22;37038;50.182;8.624;2024-01-30T05:16:25;1.80;99.90
51011;DHT22;37038;50.182;8.624;2024-01-30T05:19:14;1.90;99.90
51011;DHT22;37038;50.182;8.624;2024-01-30T05:22:02;1.90;99.90
51011;DHT22;37038;50.182;8.624;2024-01-30T05:24:50;1.80;99.90
51011;DHT22;37038;50.182;8.624;2024-01-30T05:27:40;1.80;99.90
51011;DHT22;37038;50.182;8.624;2024-01-30T05:30:28;1.80;99.90
51011;DHT22;37038;50.182;8.624;2024-01-30T05:33:16;1.70;99.90
51011;DHT22;37038;50.182;8.624;2024-01-30T05:36:04;1.70;99.90
51011;DHT22;37038;50.182;8.624;2024-01-30T05:38:52;1.70;99.90
51011;DHT22;37038;50.182;8.624;2024-01-30T05:41:39;1.80;99.90
51011;DHT22;37038;50.182;8.624;2024-01-30T05:44:27;1.80;99.90
51011;DHT22;37038;50.182;8.624;2024-01-30T05:47:15;1.80;99.90
51011;DHT22;37038;50.182;8.624;2024-01-30T05:50:04;1.80;99.90
51011;DHT22;37038;50.182;8.624;2024-01-30T05:52:51;1.80;99.90
51011;DHT22;37038;50.182;8.624;2024-01-30T05:55:39;1.70;99.90
51011;DHT22;37038;50.182;8.624;2024-01-30T05:58:30;1.70;99.90
51011;DHT22;37038;50.182;8.624;2024-01-30T06:01:21;1.80;99.90
51011;DHT22;37038;50.182;8.624;2024-01-30T06:04:09;1.70;99.90
51011;DHT22;37038;50.182;8.624;2024-01-30T06:06:57;1.70;99.90
51011;DHT22;37038;50.182;8.624;2024-01-30T06:09:45;1.50;99.90
51011;DHT22;37038;50.182;8.624;2024-01-30T06:12:35;1.60;99.90
51011;DHT22;37038;50.182;8.624;2024-01-30T06:15:23;1.60;99.90
51011;DHT22;37038;50.182;8.624;2024-01-30T06:18:11;1.60;99.90
51011;DHT22;37038;50.182;8.624;2024-01-30T06:20:58;1.70;99.90
51011;DHT22;37038;50.182;8.624;2024-01-30T06:23:46;1.70;99.90
51011;DHT22;37038;50.182;8.624;2024-01-30T06:26:34;1.60;99.90
51011;DHT22;37038;50.182;8.624;2024-01-30T06:29:22;1.50;99.90
51011;DHT22;37038;50.182;8.624;2024-01-30T06:32:12;1.50;99.90
51011;DHT22;37038;50.182;8.624;2024-01-30T06:35:01;1.50;99.90
51011;DHT22;37038;50.182;8.624;2024-01-30T06:38:09;1.50;99.90
51011;DHT22;37038;50.182;8.624;2024-01-30T06:41:39;1.60;99.90
51011;DHT22;37038;50.182;8.624;2024-01-30T06:48:51;1.70;99.90
51011;DHT22;37038;50.182;8.624;2024-01-30T06:51:55;1.70;99.90
51011;DHT22;37038;50.182;8.624;2024-01-30T06:54:46;1.80;99.90
51011;DHT22;37038;50.182;8.624;2024-01-30T06:57:41;1.80;99.90
51011;DHT22;37038;50.182;8.624;2024-01-30T07:00:40;1.80;99.90
51011;DHT22;37038;50.182;8.624;2024-01-30T07:03:33;1.70;99.90
51011;DHT22;37038;50.182;8.624;2024-01-30T07:06:24;1.70;99.90
51011;DHT22;37038;50.182;8.624;2024-01-30T07:09:24;1.80;99.90
51011;DHT22;37038;50.182;8.624;2024-01-30T07:12:33;1.90;99.90
51011;DHT22;37038;50.182;8.624;2024-01-30T07:15:27;1.90;99.90
51011;DHT22;37038;50.182;8.624;2024-01-30T07:18:22;1.90;99.90
51011;DHT22;37038;50.182;8.624;2024-01-30T07:21:25;1.80;99.90
51011;DHT22;37038;50.182;8.624;2024-01-30T07:24:47;1.90;99.90
51011;DHT22;37038;50.182;8.624;2024-01-30T07:27:41;2.00;99.90
51011;DHT22;37038;50.182;8.624;2024-01-30T07:30:36;2.10;99.90
51011;DHT22;37038;50.182;8.624;2024-01-30T07:33:30;2.20;99.90
51011;DHT22;37038;50.182;8.624;2024-01-30T07:36:31;2.10;99.90
51011;DHT22;37038;50.182;8.624;2024-01-30T07:39:28;2.30;99.90
51011;DHT22;37038;50.182;8.624;2024-01-30T07:42:39;2.30;99.90
51011;DHT22;37038;50.182;8.624;2024-01-30T07:45:34;2.20;99.90
51011;DHT22;37038;50.182;8.624;2024-01-30T07:48:27;2.30;99.90
51011;DHT22;37038;50.182;8.624;2024-01-30T07:51:16;2.40;99.90
51011;DHT22;37038;50.182;8.624;2024-01-30T07:54:10;2.50;99.90
51011;DHT22;37038;50.182;8.624;2024-01-30T07:57:09;2.60;99.90
51011;DHT22;37038;50.182;8.624;2024-01-30T08:00:10;2.60;99.90
51011;DHT22;37038;50.182;8.624;2024-01-30T08:03:02;2.60;99.90
51011;DHT22;37038;50.182;8.624;2024-01-30T08:05:52;2.70;99.90
51011;DHT22;37038;50.182;8.624;2024-01-30T08:08:48;2.80;99.90
51011;DHT22;37038;50.182;8.624;2024-01-30T08:11:45;3.00;99.90
51011;DHT22;37038;50.182;8.624;2024-01-30T08:14:56;3.00;99.90
51011;DHT22;37038;50.182;8.624;2024-01-30T08:17:46;3.20;99.90
51011;DHT22;37038;50.182;8.624;2024-01-30T08:20:35;3.20;99.90
51011;DHT22;37038;50.182;8.624;2024-01-30T08:23:34;3.30;99.90
51011;DHT22;37038;50.182;8.624;2024-01-30T08:26:58;3.30;99.90
51011;DHT22;37038;50.182;8.624;2024-01-30T08:30:06;3.30;99.90
51011;DHT22;37038;50.182;8.624;2024-01-30T08:36:17;3.30;99.90
51011;DHT22;37038;50.182;8.624;2024-01-30T08:39:14;3.40;99.90
51011;DHT22;37038;50.182;8.624;2024-01-30T08:42:05;3.50;99.90
51011;DHT22;37038;50.182;8.624;2024-01-30T08:45:20;3.50;99.90
51011;DHT22;37038;50.182;8.624;2024-01-30T08:48:11;3.40;99.90
51011;DHT22;37038;50.182;8.624;2024-01-30T08:51:10;3.50;99.90
51011;DHT22;37038;50.182;8.624;2024-01-30T08:54:03;3.60;99.90
51011;DHT22;37038;50.182;8.624;2024-01-30T08:56:54;3.60;99.90
51011;DHT22;37038;50.182;8.624;2024-01-30T08:59:43;3.70;99.90
51011;DHT22;37038;50.182;8.624;2024-01-30T09:02:35;3.90;99.90
51011;DHT22;37038;50.182;8.624;2024-01-30T09:05:23;3.80;99.90
51011;DHT22;37038;50.182;8.624;2024-01-30T09:08:11;3.80;99.90
51011;DHT22;37038;50.182;8.624;2024-01-30T09:11:13;3.70;99.90
51011;DHT22;37038;50.182;8.624;2024-01-30T09:14:03;3.70;99.90
51011;DHT22;37038;50.182;8.624;2024-01-30T09:16:55;3.60;99.90
51011;DHT22;37038;50.182;8.624;2024-01-30T09:19:48;3.60;99.90
51011;DHT22;37038;50.182;8.624;2024-01-30T09:22:43;3.70;99.90
51011;DHT22;37038;50.182;8.624;2024-01-30T09:25:42;3.70;99.90
51011;DHT22;37038;50.182;8.624;2024-01-30T09:28:35;3.80;99.90
51011;DHT22;37038;50.182;8.624;2024-01-30T09:31:26;3.90;99.90
51011;DHT22;37038;50.182;8.624;2024-01-30T09:34:23;3.90;99.90
51011;DHT22;37038;50.182;8.624;2024-01-30T09:37:21;3.90;99.90
51011;DHT22;37038;50.182;8.624;2024-01-30T09:40:22;3.90;99.90
51011;DHT22;37038;50.182;8.624;2024-01-30T09:43:16;4.10;99.90
51011;DHT22;37038;50.182;8.624;2024-01-30T09:46:15;4.00;99.90
51011;DHT22;37038;50.182;8.624;2024-01-30T09:49:18;4.10;99.90
51011;DHT22;37038;50.182;8.624;2024-01-30T09:52:23;4.10;99.90
51011;DHT22;37038;50.182;8.624;2024-01-30T09:55:16;4.20;99.90
51011;DHT22;37038;50.182;8.624;2024-01-30T09:58:12;4.30;99.90
51011;DHT22;37038;50.182;8.624;2024-01-30T10:01:17;4.20;99.90
51011;DHT22;37038;50.182;8.624;2024-01-30T10:04:07;4.30;99.90
51011;DHT22;37038;50.182;8.624;2024-01-30T10:07:06;4.60;99.90
51011;DHT22;37038;50.182;8.624;2024-01-30T10:10:12;4.60;99.90
51011;DHT22;37038;50.182;8.624;2024-01-30T10:13:11;4.60;99.90
51011;DHT22;37038;50.182;8.624;2024-01-30T10:16:21;4.60;99.90
51011;DHT22;37038;50.182;8.624;2024-01-30T10:23:04;4.50;99.90
51011;DHT22;37038;50.182;8.624;2024-01-30T10:26:12;4.60;99.90
51011;DHT22;37038;50.182;8.624;2024-01-30T10:29:29;4.70;99.90
51011;DHT22;37038;50.182;8.624;2024-01-30T10:32:25;4.70;99.90
51011;DHT22;37038;50.182;8.624;2024-01-30T10:35:21;4.70;99.90
51011;DHT22;37038;50.182;8.624;2024-01-30T10:38:33;4.90;99.90
51011;DHT22;37038;50.182;8.624;2024-01-30T10:41:42;4.70;99.90
51011;DHT22;37038;50.182;8.624;2024-01-30T10:45:14;4.80;99.90
51011;DHT22;37038;50.182;8.624;2024-01-30T10:48:08;4.90;99.90
51011;DHT22;37038;50.182;8.624;2024-01-30T10:50:59;4.90;99.90
51011;DHT22;37038;50.182;8.624;2024-01-30T10:53:50;5.00;99.90
51011;DHT22;37038;50.182;8.624;2024-01-30T10:56:40;5.20;99.90
51011;DHT22;37038;50.182;8.624;2024-01-30T10:59:28;5.20;99.90
51011;DHT22;37038;50.182;8.624;2024-01-30T11:02:40;5.50;67.00
51011;DHT22;37038;50.182;8.624;2024-01-30T11:05:28;5.80;1.00
51011;DHT22;37038;50.182;8.624;2024-01-30T11:08:28;5.80;1.00
51011;DHT22;37038;50.182;8.624;2024-01-30T11:11:23;5.50;45.90
51011;DHT22;37038;50.182;8.624;2024-01-30T11:14:23;5.70;31.70
51011;DHT22;37038;50.182;8.624;2024-01-30T11:17:14;5.60;57.00
51011;DHT22;37038;50.182;8.624;2024-01-30T11:20:04;5.70;88.60
51011;DHT22;37038;50.182;8.624;2024-01-30T11:22:56;5.70;51.10
51011;DHT22;37038;50.182;8.624;2024-01-30T11:25:47;5.80;18.00
51011;DHT22;37038;50.182;8.624;2024-01-30T11:28:55;6.00;1.00
51011;DHT22;37038;50.182;8.624;2024-01-30T11:31:53;5.70;8.40
51011;DHT22;37038;50.182;8.624;2024-01-30T11:34:42;5.70;8.30
51011;DHT22;37038;50.182;8.624;2024-01-30T11:37:37;5.80;7.60
51011;DHT22;37038;50.182;8.624;2024-01-30T11:40:31;5.90;1.00
51011;DHT22;37038;50.182;8.624;2024-01-30T11:43:21;5.90;1.00
51011;DHT22;37038;50.182;8.624;2024-01-30T11:46:11;6.10;1.00
51011;DHT22;37038;50.182;8.624;2024-01-30T11:49:03;6.20;1.00
51011;DHT22;37038;50.182;8.624;2024-01-30T11:51:52;6.30;1.00
51011;DHT22;37038;50.182;8.624;2024-01-30T11:54:41;6.30;1.00
51011;DHT22;37038;50.182;8.624;2024-01-30T11:57:30;6.40;1.00
51011;DHT22;37038;50.182;8.624;2024-01-30T12:00:19;6.50;1.00
51011;DHT22;37038;50.182;8.624;2024-01-30T12:03:11;6.90;1.00
51011;DHT22;37038;50.182;8.624;2024-01-30T12:05:59;6.80;1.00
51011;DHT22;37038;50.182;8.624;2024-01-30T12:08:59;6.80;1.00
51011;DHT22;37038;50.182;8.624;2024-01-30T12:11:48;7.10;1.00
51011;DHT22;37038;50.182;8.624;2024-01-30T12:14:36;7.50;99.90
51011;DHT22;37038;50.182;8.624;2024-01-30T12:17:32;7.10;99.90
51011;DHT22;37038;50.182;8.624;2024-01-30T12:20:23;7.10;1.00
51011;DHT22;37038;50.182;8.624;2024-01-30T12:23:17;6.80;1.00
51011;DHT22;37038;50.182;8.624;2024-01-30T12:26:10;6.80;1.00
51011;DHT22;37038;50.182;8.624;2024-01-30T12:28:58;6.80;1.00
51011;DHT22;37038;50.182;8.624;2024-01-30T12:31:48;7.00;1.00
51011;DHT22;37038;50.182;8.624;2024-01-30T12:34:41;7.40;99.90
51011;DHT22;37038;50.182;8.624;2024-01-30T12:37:44;7.20;1.00
51011;DHT22;37038;50.182;8.624;2024-01-30T12:40:33;6.80;1.00
51011;DHT22;37038;50.182;8.624;2024-01-30T12:43:25;6.90;1.00
51011;DHT22;37038;50.182;8.624;2024-01-30T12:46:37;6.90;1.00
51011;DHT22;37038;50.182;8.624;2024-01-30T12:49:32;7.10;1.00
51011;DHT22;37038;50.182;8.624;2024-01-30T12:52:21;7.30;1.00
51011;DHT22;37038;50.182;8.624;2024-01-30T12:55:10;7.60;99.90
51011;DHT22;37038;50.182;8.624;2024-01-30T12:58:04;8.00;99.90
51011;DHT22;37038;50.182;8.624;2024-01-30T13:00:54;8.50;99.90
51011;DHT22;37038;50.182;8.624;2024-01-30T13:03:45;7.90;1.00
51011;DHT22;37038;50.182;8.624;2024-01-30T13:06:38;8.20;99.90
51011;DHT22;37038;50.182;8.624;2024-01-30T13:09:27;8.60;1.00
51011;DHT22;37038;50.182;8.624;2024-01-30T13:12:17;8.60;1.00
51011;DHT22;37038;50.182;8.624;2024-01-30T13:15:17;8.50;56.90
51011;DHT22;37038;50.182;8.624;2024-01-30T13:21:40;8.10;1.00
51011;DHT22;37038;50.182;8.624;2024-01-30T13:24:27;8.00;99.90
51011;DHT22;37038;50.182;8.624;2024-01-30T13:27:25;8.10;1.00
51011;DHT22;37038;50.182;8.624;2024-01-30T13:30:15;8.30;1.00
51011;DHT22;37038;50.182;8.624;2024-01-30T13:33:12;8.20;1.00
51011;DHT22;37038;50.182;8.624;2024-01-30T13:36:08;8.10;1.00
51011;DHT22;37038;50.182;8.624;2024-01-30T13:39:00;8.10;99.90
51011;DHT22;37038;50.182;8.624;2024-01-30T13:41:52;8.00;1.00
51011;DHT22;37038;50.182;8.624;2024-01-30T13:44:40;8.00;1.00
51011;DHT22;37038;50.182;8.624;2024-01-30T13:47:40;8.10;99.90
51011;DHT22;37038;50.182;8.624;2024-01-30T13:50:31;8.20;99.90
51011;DHT22;37038;50.182;8.624;2024-01-30T13:53:23;8.10;1.00
51011;DHT22;37038;50.182;8.624;2024-01-30T13:56:22;8.20;99.90
51011;DHT22;37038;50.182;8.624;2024-01-30T13:59:17;8.30;97.50
51011;DHT22;37038;50.182;8.624;2024-01-30T14:02:11;8.30;1.00
51011;DHT22;37038;50.182;8.624;2024-01-30T14:05:07;8.40;99.90
51011;DHT22;37038;50.182;8.624;2024-01-30T14:07:58;8.30;76.00
51011;DHT22;37038;50.182;8.624;2024-01-30T14:10:52;8.30;1.00
51011;DHT22;37038;50.182;8.624;2024-01-30T14:13:42;8.20;99.90
51011;DHT22;37038;50.182;8.624;2024-01-30T14:16:30;8.30;1.00
51011;DHT22;37038;50.182;8.624;2024-01-30T14:19:22;8.10;99.90
51011;DHT22;37038;50.182;8.624;2024-01-30T14:22:18;8.10;99.90
51011;DHT22;37038;50.182;8.624;2024-01-30T14:25:13;8.00;99.90
51011;DHT22;37038;50.182;8.624;2024-01-30T14:28:17;8.10;1.00
51011;DHT22;37038;50.182;8.624;2024-01-30T14:31:15;8.10;99.90
51011;DHT22;37038;50.182;8.624;2024-01-30T14:45:19;8.00;1.00
51011;DHT22;37038;50.182;8.624;2024-01-30T14:48:13;7.80;99.90
51011;DHT22;37038;50.182;8.624;2024-01-30T14:51:06;7.80;7.20
51011;DHT22;37038;50.182;8.624;2024-01-30T14:53:59;7.70;1.00
51011;DHT22;37038;50.182;8.624;2024-01-30T14:56:50;7.80;99.90
51011;DHT22;37038;50.182;8.624;2024-01-30T14:59:41;7.80;99.90
51011;DHT22;37038;50.182;8.624;2024-01-30T15:02:38;7.70;1.00
51011;DHT22;37038;50.182;8.624;2024-01-30T15:05:28;7.70;99.90
51011;DHT22;37038;50.182;8.624;2024-01-30T15:08:20;7.70;99.90
51011;DHT22;37038;50.182;8.624;2024-01-30T15:11:10;7.70;1.00
51011;DHT22;37038;50.182;8.624;2024-01-30T15:14:02;7.80;76.40
51011;DHT22;37038;50.182;8.624;2024-01-30T15:16:57;7.80;99.90
51011;DHT22;37038;50.182;8.624;2024-01-30T15:19:48;7.80;99.90
51011;DHT22;37038;50.182;8.624;2024-01-30T15:22:42;7.80;1.00
51011;DHT22;37038;50.182;8.624;2024-01-30T15:25:38;7.80;1.00
51011;DHT22;37038;50.182;8.624;2024-01-30T15:28:58;7.70;1.00
51011;DHT22;37038;50.182;8.624;2024-01-30T15:32:08;7.70;1.00
51011;DHT22;37038;50.182;8.624;2024-01-30T15:35:03;7.70;1.00
51011;DHT22;37038;50.182;8.624;2024-01-30T15:37:52;7.70;1.00
51011;DHT22;37038;50.182;8.624;2024-01-30T15:40:43;7.90;99.90
51011;DHT22;37038;50.182;8.624;2024-01-30T15:43:37;7.90;1.00
51011;DHT22;37038;50.182;8.624;2024-01-30T15:46:28;7.90;1.00
51011;DHT22;37038;50.182;8.624;2024-01-30T15:49:19;7.80;99.90
51011;DHT22;37038;50.182;8.624;2024-01-30T15:52:08;7.80;99.90
51011;DHT22;37038;50.182;8.624;2024-01-30T15:55:04;7.80;1.00
51011;DHT22;37038;50.182;8.624;2024-01-30T15:57:55;7.80;1.00
51011;DHT22;37038;50.182;8.624;2024-01-30T16:00:43;7.80;1.00
51011;DHT22;37038;50.182;8.624;2024-01-30T16:03:33;7.80;1.00
51011;DHT22;37038;50.182;8.624;2024-01-30T16:06:28;7.90;99.90
51011;DHT22;37038;50.182;8.624;2024-01-30T16:09:16;7.90;99.90
51011;DHT22;37038;50.182;8.624;2024-01-30T16:12:05;7.90;1.00
51011;DHT22;37038;50.182;8.624;2024-01-30T16:14:58;8.00;1.00
51011;DHT22;37038;50.182;8.624;2024-01-30T16:17:47;8.00;1.00
51011;DHT22;37038;50.182;8.624;2024-01-30T16:20:40;8.00;1.00
51011;DHT22;37038;50.182;8.624;2024-01-30T16:23:32;8.00;1.00
51011;DHT22;37038;50.182;8.624;2024-01-30T16:26:28;7.90;99.90
51011;DHT22;37038;50.182;8.624;2024-01-30T16:29:19;7.90;1.00
51011;DHT22;37038;50.182;8.624;2024-01-30T16:32:09;7.90;1.00
51011;DHT22;37038;50.182;8.624;2024-01-30T16:35:06;7.90;1.00
51011;DHT22;37038;50.182;8.624;2024-01-30T16:38:01;7.90;1.00
51011;DHT22;37038;50.182;8.624;2024-01-30T16:40:49;8.00;99.90
51011;DHT22;37038;50.182;8.624;2024-01-30T16:43:41;7.90;1.00
51011;DHT22;37038;50.182;8.624;2024-01-30T16:46:30;7.90;1.00
51011;DHT22;37038;50.182;8.624;2024-01-30T16:49:25;7.90;1.00
51011;DHT22;37038;50.182;8.624;2024-01-30T16:52:16;7.90;1.00
51011;DHT22;37038;50.182;8.624;2024-01-30T16:55:07;8.00;1.00
51011;DHT22;37038;50.182;8.624;2024-01-30T16:57:58;8.00;99.90
51011;DHT22;37038;50.182;8.624;2024-01-30T17:00:46;8.00;1.00
51011;DHT22;37038;50.182;8.624;2024-01-30T17:03:34;8.00;99.90
51011;DHT22;37038;50.182;8.624;2024-01-30T17:06:22;8.00;99.90
51011;DHT22;37038;50.182;8.624;2024-01-30T17:09:13;7.90;1.00
51011;DHT22;37038;50.182;8.624;2024-01-30T17:12:04;7.90;1.00
51011;DHT22;37038;50.182;8.624;2024-01-30T17:14:52;8.00;1.00
51011;DHT22;37038;50.182;8.624;2024-01-30T17:17:47;7.90;1.00
51011;DHT22;37038;50.182;8.624;2024-01-30T17:20:36;8.00;1.00
51011;DHT22;37038;50.182;8.624;2024-01-30T17:23:29;8.00;1.00
51011;DHT22;37038;50.182;8.624;2024-01-30T17:26:23;8.10;1.00
51011;DHT22;37038;50.182;8.624;2024-01-30T17:29:17;8.10;99.90
51011;DHT22;37038;50.182;8.624;2024-01-30T17:32:28;8.20;1.00
51011;DHT22;37038;50.182;8.624;2024-01-30T17:35:26;8.20;1.00
51011;DHT22;37038;50.182;8.624;2024-01-30T17:38:34;8.10;99.90
51011;DHT22;37038;50.182;8.624;2024-01-30T17:41:37;8.10;99.90
51011;DHT22;37038;50.182;8.624;2024-01-30T17:44:50;8.10;1.00
51011;DHT22;37038;50.182;8.624;2024-01-30T17:47:47;8.10;99.90
51011;DHT22;37038;50.182;8.624;2024-01-30T17:50:35;8.10;99.90
51011;DHT22;37038;50.182;8.624;2024-01-30T17:53:24;8.00;99.90
51011;DHT22;37038;50.182;8.624;2024-01-30T17:56:11;8.00;99.90
51011;DHT22;37038;50.182;8.624;2024-01-30T17:59:02;8.00;99.90
51011;DHT22;37038;50.182;8.624;2024-01-30T18:01:53;8.00;99.90
51011;DHT22;37038;50.182;8.624;2024-01-30T18:04:42;8.00;99.90
51011;DHT22;37038;50.182;8.624;2024-01-30T18:07:31;8.00;99.90
51011;DHT22;37038;50.182;8.624;2024-01-30T18:10:22;8.10;99.90
51011;DHT22;37038;50.182;8.624;2024-01-30T18:13:35;7.90;1.00
51011;DHT22;37038;50.182;8.624;2024-01-30T18:24:15;8.00;99.90
51011;DHT22;37038;50.182;8.624;2024-01-30T18:27:31;8.00;99.90
51011;DHT22;37038;50.182;8.624;2024-01-30T18:34:44;7.90;99.90
51011;DHT22;37038;50.182;8.624;2024-01-30T18:37:32;7.90;1.00
51011;DHT22;37038;50.182;8.624;2024-01-30T18:40:20;7.90;99.90
51011;DHT22;37038;50.182;8.624;2024-01-30T18:43:12;7.90;99.90
51011;DHT22;37038;50.182;8.624;2024-01-30T18:46:00;7.90;99.90
51011;DHT22;37038;50.182;8.624;2024-01-30T18:49:02;7.80;1.00
51011;DHT22;37038;50.182;8.624;2024-01-30T18:52:17;7.80;1.00
51011;DHT22;37038;50.182;8.624;2024-01-30T18:59:34;7.90;1.00
51011;DHT22;37038;50.182;8.624;2024-01-30T19:15:39;7.90;1.00
51011;DHT22;37038;50.182;8.624;2024-01-30T19:18:36;7.90;1.00
51011;DHT22;37038;50.182;8.624;2024-01-30T19:21:46;7.90;1.00
51011;DHT22;37038;50.182;8.624;2024-01-30T19:24:47;7.90;1.00
51011;DHT22;37038;50.182;8.624;2024-01-30T19:27:43;7.90;1.00
51011;DHT22;37038;50.182;8.624;2024-01-30T19:30:35;7.90;1.00